Time;durP1;ratioP1;P1;durP2;ratioP2;P2;SDS_P1;SDS_P2;PMS_P1;PMS_P2;Temp;Humidity;BMP_temperature;BMP_pressure;BME280_temperature;BME280_humidity;BME280_pressure;Samples;Min_cycle;Max_cycle;Signal;HPM_P1;HPM_P2
2022/03/21 00:00:27;;;;;;;50.17;26.30;;;154.20;896.00;;;;;;5015120;28;20049;-58
2022/03/21 00:02:55;;;;;;;54.85;28.10;;;154.20;896.00;;;;;;5015172;28;20030;-59
2022/03/21 00:05:20;;;;;;;47.38;26.15;;;154.20;896.00;;;;;;5015307;28;20025;-58
2022/03/21 00:07:46;;;;;;;47.90;26.83;;;154.10;896.00;;;;;;5014883;28;20214;-58
2022/03/21 00:10:12;;;;;;;48.35;24.92;;;154.20;896.00;;;;;;5015183;28;20034;-58
2022/03/21 00:12:39;;;;;;;48.70;25.17;;;154.10;896.00;;;;;;5014880;28;20092;-58
2022/03/21 00:15:09;;;;;;;44.05;24.33;;;154.20;896.00;;;;;;5014888;28;20034;-59
2022/03/21 00:17:37;;;;;;;49.38;26.98;;;154.10;896.00;;;;;;5015204;28;20030;-58
2022/03/21 00:20:03;;;;;;;54.53;27.73;;;154.10;896.00;;;;;;5075369;28;20040;-58
2022/03/21 00:22:29;;;;;;;56.28;30.95;;;154.10;896.00;;;;;;5097051;28;20028;-59
2022/03/21 00:24:55;;;;;;;58.97;31.20;;;154.00;921.60;;;;;;5096805;28;20086;-59
2022/03/21 00:27:20;;;;;;;57.15;30.25;;;154.00;921.60;;;;;;5096886;28;20475;-60
2022/03/21 00:29:47;;;;;;;56.63;30.50;;;154.00;896.00;;;;;;5097008;28;20039;-58
2022/03/21 00:32:13;;;;;;;54.08;29.38;;;153.90;896.00;;;;;;5096365;28;20040;-61
2022/03/21 00:34:38;;;;;;;56.78;30.67;;;154.00;896.00;;;;;;5096647;28;20035;-58
2022/03/21 00:37:04;;;;;;;57.20;31.88;;;153.90;921.60;;;;;;5096558;28;20032;-57
2022/03/21 00:39:30;;;;;;;55.03;30.48;;;153.90;921.60;;;;;;5096696;28;20442;-58
2022/03/21 00:41:57;;;;;;;47.95;27.02;;;153.90;921.60;;;;;;5096565;28;20038;-59
2022/03/21 00:44:23;;;;;;;49.80;26.77;;;153.90;896.00;;;;;;5096940;28;20431;-58
2022/03/21 00:46:48;;;;;;;44.58;25.80;;;153.90;921.60;;;;;;5096657;28;20035;-57
2022/03/21 00:49:14;;;;;;;43.70;24.38;;;153.80;896.00;;;;;;5096554;28;20504;-57
2022/03/21 00:51:40;;;;;;;43.85;24.10;;;153.80;921.60;;;;;;5095479;28;20036;-58
2022/03/21 00:54:06;;;;;;;40.45;21.75;;;153.80;921.60;;;;;;5096435;28;20028;-57
2022/03/21 00:56:31;;;;;;;36.85;20.80;;;153.70;921.60;;;;;;5096068;28;20107;-59
2022/03/21 00:58:57;;;;;;;39.30;20.65;;;153.70;921.60;;;;;;5096297;28;20032;-59
2022/03/21 01:01:23;;;;;;;37.40;20.92;;;153.70;921.60;;;;;;5095970;28;20106;-59
2022/03/21 01:03:49;;;;;;;34.92;20.95;;;153.70;896.00;;;;;;5096056;28;20066;-59
2022/03/21 01:06:14;;;;;;;40.90;21.42;;;153.70;896.00;;;;;;5095997;28;20024;-59
2022/03/21 01:08:40;;;;;;;37.30;22.10;;;153.60;921.60;;;;;;5095994;28;20028;-59
2022/03/21 01:11:06;;;;;;;38.83;22.13;;;153.60;921.60;;;;;;5096349;28;20090;-59
2022/03/21 01:13:31;;;;;;;38.20;21.13;;;153.60;921.60;;;;;;5095950;28;20044;-60
2022/03/21 01:15:57;;;;;;;38.72;22.02;;;128.90;921.60;;;;;;5095733;28;20481;-59
2022/03/21 01:18:23;;;;;;;39.00;21.00;;;153.60;921.60;;;;;;5096036;28;20110;-59
2022/03/21 01:20:49;;;;;;;37.25;20.58;;;128.90;896.00;;;;;;5095894;28;20028;-59
2022/03/21 01:23:15;;;;;;;36.47;19.83;;;153.60;896.00;;;;;;5095785;28;20522;-59
2022/03/21 01:25:40;;;;;;;39.25;21.65;;;128.90;896.00;;;;;;5095866;28;20028;-59
2022/03/21 01:28:06;;;;;;;38.40;22.33;;;128.80;921.60;;;;;;5095117;28;20031;-59
2022/03/21 01:30:32;;;;;;;39.38;21.77;;;128.80;921.60;;;;;;5076927;28;20074;-59
2022/03/21 01:32:57;;;;;;;35.78;20.25;;;128.70;921.60;;;;;;5095528;28;20040;-59
2022/03/21 01:35:23;;;;;;;40.08;20.83;;;128.70;921.60;;;;;;5095690;28;20028;-59
2022/03/21 01:37:49;;;;;;;37.88;20.95;;;128.70;921.60;;;;;;5095361;28;20400;-59
2022/03/21 01:40:16;;;;;;;38.08;20.00;;;128.60;921.60;;;;;;5077034;28;20039;-61
2022/03/21 01:42:46;;;;;;;43.28;21.05;;;128.70;921.60;;;;;;5095388;28;20488;-59
2022/03/21 01:45:12;;;;;;;41.53;21.30;;;128.60;921.60;;;;;;5095195;28;20099;-59
2022/03/21 01:47:38;;;;;;;42.30;22.33;;;128.60;921.60;;;;;;5095399;28;20058;-59
2022/03/21 01:50:05;;;;;;;40.47;22.50;;;128.60;921.60;;;;;;5095343;28;20401;-61
2022/03/21 01:52:31;;;;;;;45.00;23.90;;;128.50;921.60;;;;;;5094872;28;20063;-60
2022/03/21 01:57:43;;;;;;;40.03;21.92;;;128.50;921.60;;;;;;5095064;28;20046;-59
2022/03/21 02:00:09;;;;;;;39.28;21.08;;;128.40;921.60;;;;;;5095307;28;20048;-57
2022/03/21 02:02:35;;;;;;;36.25;20.83;;;128.50;921.60;;;;;;5094743;28;20107;-57
2022/03/21 02:05:00;;;;;;;38.88;19.90;;;128.40;921.60;;;;;;5094838;28;20433;-57
2022/03/21 02:07:26;;;;;;;40.50;22.30;;;128.50;921.60;;;;;;5094894;28;20032;-58
2022/03/21 02:09:53;;;;;;;46.08;24.77;;;128.40;921.60;;;;;;5095602;28;20020;-57
2022/03/21 02:12:20;;;;;;;50.13;26.35;;;128.40;921.60;;;;;;5094258;28;20040;-58
2022/03/21 02:14:45;;;;;;;54.60;25.70;;;128.50;921.60;;;;;;5095025;28;20031;-58
2022/03/21 02:17:16;;;;;;;46.45;23.95;;;128.50;947.20;;;;;;5094739;28;20024;-60
2022/03/21 02:19:45;;;;;;;82.28;30.50;;;128.60;947.20;;;;;;5094718;28;20024;-58
2022/03/21 02:22:45;;;;;;;59.53;26.08;;;128.60;998.40;;;;;;5094474;28;20024;-60
2022/03/21 02:25:32;;;;;;;44.47;23.83;;;128.60;947.20;;;;;;5012614;28;20045;-58
2022/03/21 02:28:04;;;;;;;48.40;24.05;;;128.60;947.20;;;;;;5012318;28;20030;-58
2022/03/21 02:30:34;;;;;;;46.35;24.02;;;128.70;921.60;;;;;;5012488;28;20053;-60
2022/03/21 02:33:01;;;;;;;48.75;23.20;;;128.80;921.60;;;;;;5012401;28;20038;-58
2022/03/21 02:35:29;;;;;;;48.67;22.92;;;128.80;921.60;;;;;;5012113;28;20029;-58
2022/03/21 02:37:58;;;;;;;42.10;20.67;;;128.80;921.60;;;;;;5012290;28;20025;-60
2022/03/21 02:40:25;;;;;;;36.13;20.70;;;128.90;921.60;;;;;;5012208;28;20030;-58
2022/03/21 02:42:51;;;;;;;38.95;20.80;;;128.80;921.60;;;;;;5012217;28;20041;-61
2022/03/21 02:45:17;;;;;;;40.90;19.90;;;128.80;921.60;;;;;;5012309;28;20025;-59
2022/03/21 02:47:43;;;;;;;38.95;20.52;;;128.90;896.00;;;;;;5012356;28;20029;-59
2022/03/21 02:50:13;;;;;;;40.25;20.38;;;128.80;896.00;;;;;;5012217;28;20034;-58
2022/03/21 02:52:41;;;;;;;34.97;18.33;;;128.90;896.00;;;;;;5011991;28;20044;-60
2022/03/21 02:55:07;;;;;;;36.00;18.42;;;128.80;896.00;;;;;;5012033;28;20108;-60
2022/03/21 02:57:33;;;;;;;41.13;20.45;;;128.90;896.00;;;;;;5012215;28;20476;-60
2022/03/21 02:59:59;;;;;;;45.10;21.70;;;128.80;896.00;;;;;;5011955;28;20044;-59
2022/03/21 03:02:25;;;;;;;41.28;20.98;;;128.80;921.60;;;;;;5049342;28;20037;-58
2022/03/21 03:04:52;;;;;;;35.72;19.67;;;128.70;921.60;;;;;;5073943;28;20024;-58
2022/03/21 03:07:18;;;;;;;37.95;21.35;;;128.70;921.60;;;;;;5073533;28;20032;-60
2022/03/21 03:09:43;;;;;;;30.45;17.75;;;128.70;921.60;;;;;;5073861;28;20112;-59
2022/03/21 03:12:09;;;;;;;32.83;18.88;;;128.70;921.60;;;;;;5073621;28;20036;-58
2022/03/21 03:14:35;;;;;;;34.00;17.73;;;128.70;921.60;;;;;;5073404;28;20028;-58
2022/03/21 03:17:01;;;;;;;35.55;19.52;;;128.80;921.60;;;;;;5073633;28;20025;-60
2022/03/21 03:19:27;;;;;;;36.15;19.13;;;128.70;896.00;;;;;;5073750;28;20028;-58
2022/03/21 03:21:53;;;;;;;42.40;21.23;;;128.50;921.60;;;;;;5073439;28;20462;-58
2022/03/21 03:24:23;;;;;;;41.42;20.10;;;128.50;921.60;;;;;;5073615;28;20042;-57
2022/03/21 03:26:49;;;;;;;42.22;20.80;;;128.50;921.60;;;;;;5073780;28;20102;-59
2022/03/21 03:29:15;;;;;;;42.03;21.67;;;128.40;947.20;;;;;;5073535;28;20474;-58
2022/03/21 03:31:41;;;;;;;43.45;22.63;;;128.40;947.20;;;;;;5074109;28;20025;-57
2022/03/21 03:34:07;;;;;;;45.13;22.90;;;128.40;921.60;;;;;;5073463;28;20035;-59
2022/03/21 03:36:32;;;;;;;46.10;23.40;;;128.40;947.20;;;;;;5073592;28;20348;-58
2022/03/21 03:38:59;;;;;;;49.38;24.08;;;128.20;947.20;;;;;;5073484;28;20413;-57
2022/03/21 03:41:27;;;;;;;50.47;24.27;;;128.10;947.20;;;;;;5073265;28;20032;-57
2022/03/21 03:43:52;;;;;;;53.17;25.55;;;128.10;947.20;;;;;;5073459;28;20105;-58
2022/03/21 03:46:19;;;;;;;47.83;24.60;;;128.00;947.20;;;;;;5073189;28;20113;-58
2022/03/21 03:48:45;;;;;;;41.28;21.42;;;128.00;947.20;;;;;;5073293;28;20563;-58
2022/03/21 03:51:12;;;;;;;37.72;20.05;;;103.30;947.20;;;;;;5073416;28;20451;-58
2022/03/21 03:53:38;;;;;;;40.47;19.35;;;103.30;921.60;;;;;;5073267;28;20083;-59
2022/03/21 03:56:06;;;;;;;37.90;18.85;;;103.30;947.20;;;;;;5073394;28;20119;-61
2022/03/21 03:58:33;;;;;;;42.78;19.23;;;103.20;947.20;;;;;;5073053;28;20032;-60
2022/03/21 04:00:58;;;;;;;33.45;17.13;;;103.20;921.60;;;;;;5071794;28;20049;-58
2022/03/21 04:06:08;;;;;;;34.67;17.90;;;103.10;947.20;;;;;;5073472;28;20118;-58
2022/03/21 04:08:34;;;;;;;32.83;16.58;;;103.10;947.20;;;;;;5073078;28;20490;-58
2022/03/21 04:11:00;;;;;;;31.52;17.08;;;103.10;947.20;;;;;;5073177;28;20028;-60
2022/03/21 04:13:25;;;;;;;32.28;15.65;;;103.10;947.20;;;;;;5073097;28;20036;-59
2022/03/21 04:15:51;;;;;;;31.02;16.50;;;103.10;947.20;;;;;;5073236;28;20051;-58
2022/03/21 04:18:17;;;;;;;30.52;16.02;;;103.10;947.20;;;;;;5072994;28;20020;-58
2022/03/21 04:20:42;;;;;;;34.08;17.60;;;103.00;947.20;;;;;;5072776;28;20386;-57
2022/03/21 04:23:09;;;;;;;29.08;15.75;;;103.00;947.20;;;;;;5072940;28;20036;-57
2022/03/21 04:25:38;;;;;;;34.95;17.30;;;103.00;947.20;;;;;;5072998;28;20095;-58
2022/03/21 04:28:09;;;;;;;34.25;17.08;;;103.00;947.20;;;;;;5074783;28;20048;-57
2022/03/21 04:30:35;;;;;;;34.15;17.73;;;103.00;947.20;;;;;;5076419;28;20107;-58
2022/03/21 04:33:01;;;;;;;39.35;18.50;;;103.00;947.20;;;;;;5076321;28;20028;-58
2022/03/21 04:35:27;;;;;;;29.48;16.00;;;102.90;972.80;;;;;;5076910;28;20028;-60
2022/03/21 04:37:54;;;;;;;32.83;16.48;;;102.90;947.20;;;;;;5076372;28;20027;-57
2022/03/21 04:40:19;;;;;;;33.22;17.33;;;102.90;972.80;;;;;;5076150;28;20028;-58
2022/03/21 04:42:45;;;;;;;29.38;17.30;;;102.90;947.20;;;;;;5076134;28;20028;-58
2022/03/21 04:45:11;;;;;;;30.60;18.17;;;102.80;947.20;;;;;;5076240;28;20418;-58
2022/03/21 04:47:37;;;;;;;30.42;15.63;;;102.90;947.20;;;;;;5076100;28;20029;-57
2022/03/21 04:50:03;;;;;;;28.73;16.02;;;102.90;947.20;;;;;;5076120;28;20386;-60
2022/03/21 04:52:29;;;;;;;29.88;16.23;;;102.90;947.20;;;;;;5075714;28;20028;-60
2022/03/21 04:54:54;;;;;;;28.95;18.10;;;102.90;972.80;;;;;;5076211;28;20020;-60
2022/03/21 04:57:23;;;;;;;34.03;17.60;;;102.80;972.80;;;;;;5075901;28;20486;-58
2022/03/21 04:59:49;;;;;;;35.03;18.48;;;102.80;972.80;;;;;;5080077;28;20032;-60
2022/03/21 05:02:16;;;;;;;39.28;20.00;;;102.80;972.80;;;;;;5096095;28;20060;-57
2022/03/21 05:04:42;;;;;;;45.83;20.23;;;102.80;972.80;;;;;;5095935;28;20089;-57
2022/03/21 05:07:12;;;;;;;51.65;23.50;;;102.80;947.20;;;;;;5096034;28;20028;-57
2022/03/21 05:09:40;;;;;;;64.60;30.05;;;102.70;972.80;;;;;;5096012;28;20363;-60
2022/03/21 05:12:08;;;;;;;73.80;33.83;;;102.80;972.80;;;;;;5095822;28;20131;-57
2022/03/21 05:14:33;;;;;;;89.28;39.22;;;102.70;972.80;;;;;;5095566;28;20024;-57
2022/03/21 05:17:01;;;;;;;81.00;36.45;;;102.70;972.80;;;;;;5095826;28;20028;-59
2022/03/21 05:19:34;;;;;;;71.68;34.22;;;102.70;972.80;;;;;;5095623;28;20028;-58
2022/03/21 05:22:01;;;;;;;61.28;28.17;;;102.70;998.40;;;;;;5095209;28;20061;-61
2022/03/21 05:32:38;;;;;;;46.30;22.05;;;102.80;998.40;;;;;;5092191;28;20043;-58
2022/03/21 05:37:49;;;;;;;70.78;28.40;;;102.70;998.40;;;;;;5092285;28;20111;-60
2022/03/21 05:40:34;;;;;;;87.50;33.15;;;102.70;1024.00;;;;;;5093759;28;20107;-58
2022/03/21 05:43:00;;;;;;;;;;;102.80;1024.00;;;;;;5093302;28;20384;-60
2022/03/21 05:45:28;;;;;;;88.53;32.40;;;102.80;1024.00;;;;;;5093646;28;19939;-59
2022/03/21 05:50:39;;;;;;;69.18;28.15;;;102.80;1024.00;;;;;;5092564;28;20070;-60
2022/03/21 05:53:08;;;;;;;56.60;23.92;;;102.80;1024.00;;;;;;5093281;28;20075;-60
2022/03/21 05:55:34;;;;;;;44.40;21.80;;;102.90;1024.00;;;;;;5093481;28;20052;-60
2022/03/21 05:58:00;;;;;;;39.55;18.90;;;102.90;1024.00;;;;;;5093508;28;20047;-59
2022/03/21 06:00:27;;;;;;;37.70;18.77;;;103.00;1024.00;;;;;;5093098;28;20036;-60
2022/03/21 06:02:53;;;;;;;40.53;19.25;;;103.00;1024.00;;;;;;5092953;28;20393;-58
2022/03/21 06:05:20;;;;;;;36.22;17.08;;;103.00;1024.00;;;;;;5093054;28;20028;-59
2022/03/21 06:07:47;;;;;;;34.78;16.77;;;103.10;1024.00;;;;;;5093094;28;20028;-58
2022/03/21 06:10:13;;;;;;;29.73;16.20;;;103.10;1024.00;;;;;;5093338;28;20030;-59
2022/03/21 06:12:42;;;;;;;35.75;18.23;;;103.10;1024.00;;;;;;5092886;28;20494;-59
2022/03/21 06:15:09;;;;;;;29.48;16.80;;;103.20;1024.00;;;;;;5092883;28;20017;-60
2022/03/21 06:17:42;;;;;;;30.73;16.45;;;103.20;1024.00;;;;;;5093069;28;20016;-59
2022/03/21 06:20:09;;;;;;;33.13;17.85;;;103.20;1049.60;;;;;;5093200;28;20534;-58
2022/03/21 06:22:35;;;;;;;30.45;17.40;;;103.30;1049.60;;;;;;5092599;28;20489;-59
2022/03/21 06:25:01;;;;;;;34.92;17.05;;;128.00;1075.20;;;;;;5093009;28;20024;-57
2022/03/21 06:27:27;;;;;;;44.88;19.27;;;128.10;1075.20;;;;;;5092519;28;20101;-59
2022/03/21 06:29:52;;;;;;;36.60;17.27;;;128.10;1075.20;;;;;;5093034;28;20469;-58
2022/03/21 06:32:18;;;;;;;38.55;19.05;;;128.20;1075.20;;;;;;5092510;28;20039;-57
2022/03/21 06:34:44;;;;;;;40.58;20.02;;;128.30;1075.20;;;;;;5092738;28;20034;-57
2022/03/21 06:37:10;;;;;;;42.58;20.23;;;128.20;1075.20;;;;;;5092729;28;20062;-58
2022/03/21 06:39:35;;;;;;;36.10;20.48;;;128.30;1075.20;;;;;;5093044;28;20044;-58
2022/03/21 06:42:01;;;;;;;38.13;19.75;;;128.40;1075.20;;;;;;5092279;28;20485;-59
2022/03/21 06:44:27;;;;;;;36.67;19.95;;;128.40;1100.80;;;;;;5089591;28;20035;-58
2022/03/21 06:46:53;;;;;;;38.55;20.83;;;128.50;1075.20;;;;;;5092867;28;20542;-59
2022/03/21 06:49:20;;;;;;;38.45;19.65;;;128.50;1075.20;;;;;;5092088;28;20040;-58
2022/03/21 06:51:46;;;;;;;33.78;18.50;;;128.60;1075.20;;;;;;5091311;28;20051;-58
2022/03/21 06:54:12;;;;;;;25.92;17.27;;;128.80;1075.20;;;;;;5092713;28;20036;-59
2022/03/21 06:56:37;;;;;;;32.90;20.02;;;128.80;1075.20;;;;;;5092642;28;20166;-57
2022/03/21 06:59:03;;;;;;;37.83;21.15;;;128.80;1075.20;;;;;;5092559;28;20359;-60
2022/03/21 07:01:31;;;;;;;40.47;21.13;;;128.90;1075.20;;;;;;5092179;28;20131;-58
2022/03/21 07:03:57;;;;;;;35.45;19.60;;;153.60;1075.20;;;;;;5092570;28;20038;-57
2022/03/21 07:06:22;;;;;;;34.78;18.45;;;153.70;1049.60;;;;;;5092477;28;20019;-58
2022/03/21 07:08:51;;;;;;;43.85;21.75;;;153.80;1049.60;;;;;;5092475;28;20032;-58
2022/03/21 07:11:18;;;;;;;37.45;21.10;;;153.90;1075.20;;;;;;5090121;28;20024;-57
2022/03/21 07:13:44;;;;;;;37.60;19.58;;;154.00;1049.60;;;;;;5092067;28;20500;-57
2022/03/21 07:16:15;;;;;;;43.72;22.90;;;154.10;1049.60;;;;;;5092420;28;20099;-57
2022/03/21 07:18:44;;;;;;;48.20;24.20;;;154.20;1049.60;;;;;;5092087;28;20381;-58
2022/03/21 07:21:11;;;;;;;54.58;27.45;;;154.30;1049.60;;;;;;5091747;28;20032;-57
2022/03/21 07:23:37;;;;;;;43.08;24.00;;;154.30;1049.60;;;;;;5073978;28;20039;-57
2022/03/21 07:26:03;;;;;;;39.75;21.52;;;179.20;1049.60;;;;;;5091636;28;20025;-58
2022/03/21 07:28:29;;;;;;;37.08;20.40;;;179.30;1049.60;;;;;;5092188;28;20032;-58
2022/03/21 07:30:55;;;;;;;32.25;18.50;;;179.50;1049.60;;;;;;5092171;28;20446;-57
2022/03/21 07:33:20;;;;;;;31.65;18.73;;;179.60;1049.60;;;;;;5091783;28;20036;-57
2022/03/21 07:35:46;;;;;;;35.25;18.70;;;179.70;1049.60;;;;;;5091895;28;20056;-58
2022/03/21 07:38:12;;;;;;;32.45;19.23;;;179.80;1049.60;;;;;;5091860;28;20038;-58
2022/03/21 07:40:38;;;;;;;33.42;18.65;;;179.90;1024.00;;;;;;5091807;28;20048;-60
2022/03/21 07:43:03;;;;;;;26.05;17.70;;;180.10;1049.60;;;;;;5091836;28;20465;-58
2022/03/21 07:48:13;;;;;;;43.60;23.00;;;205.00;1049.60;;;;;;5091793;28;20084;-59
2022/03/21 07:50:41;;;;;;;40.28;20.23;;;205.10;1024.00;;;;;;5093570;28;20372;-57
2022/03/21 07:53:07;;;;;;;33.47;19.77;;;205.20;1024.00;;;;;;5092066;28;20416;-59
2022/03/21 07:55:33;;;;;;;35.20;19.25;;;205.30;998.40;;;;;;5089292;28;20390;-58
2022/03/21 07:58:00;;;;;;;31.30;18.52;;;205.40;998.40;;;;;;5092819;28;20028;-60
2022/03/21 08:00:30;;;;;;;31.58;20.13;;;205.50;998.40;;;;;;5093223;28;20052;-57
2022/03/21 08:02:58;;;;;;;30.50;18.55;;;205.60;998.40;;;;;;5095625;28;20466;-59
2022/03/21 08:05:23;;;;;;;33.13;18.88;;;205.70;998.40;;;;;;5096917;28;20035;-57
2022/03/21 08:07:51;;;;;;;32.67;19.88;;;230.40;972.80;;;;;;5096765;28;20389;-58
2022/03/21 08:10:18;;;;;;;33.17;19.40;;;230.50;972.80;;;;;;5078348;28;20043;-59
2022/03/21 08:12:46;;;;;;;30.95;18.50;;;230.70;972.80;;;;;;5097149;28;20123;-58
2022/03/21 08:15:13;;;;;;;29.52;16.65;;;230.80;947.20;;;;;;5097201;28;20036;-60
2022/03/21 08:17:49;;;;;;;30.20;17.20;;;231.00;947.20;;;;;;5097032;28;20051;-58
2022/03/21 08:20:18;;;;;;;28.83;16.45;;;231.10;921.60;;;;;;5096817;28;20151;-58
2022/03/21 08:22:44;;;;;;;27.27;16.17;;;231.30;921.60;;;;;;5096739;28;20038;-60
2022/03/21 08:25:10;;;;;;;34.58;18.35;;;256.00;921.60;;;;;;5097089;28;20028;-59
2022/03/21 08:27:36;;;;;;;30.33;18.40;;;256.10;896.00;;;;;;5096902;28;20036;-59
2022/03/21 08:30:02;;;;;;;28.55;17.77;;;256.20;896.00;;;;;;5096909;28;20024;-58
2022/03/21 08:32:28;;;;;;;28.20;17.42;;;256.30;896.00;;;;;;5096594;28;20111;-58
2022/03/21 08:34:53;;;;;;;30.88;16.85;;;256.50;870.40;;;;;;5096948;28;20107;-59
2022/03/21 08:37:21;;;;;;;25.40;16.23;;;256.60;870.40;;;;;;5096664;28;20024;-60
2022/03/21 08:39:47;;;;;;;25.25;15.82;;;256.70;870.40;;;;;;5096759;28;20024;-59
2022/03/21 08:42:13;;;;;;;25.00;15.65;;;256.90;844.80;;;;;;5097166;28;20111;-60
2022/03/21 08:44:39;;;;;;;28.33;15.88;;;256.90;819.20;;;;;;5096617;28;20028;-60
2022/03/21 08:53:30;;;;;;;28.92;15.38;;;281.80;844.80;;;;;;5096234;28;20125;-58
2022/03/21 08:55:56;;;;;;;23.35;14.95;;;282.00;819.20;;;;;;5096378;28;20431;-58
2022/03/21 08:58:22;;;;;;;27.60;16.63;;;282.00;819.20;;;;;;5096103;28;20024;-60
2022/03/21 09:00:47;;;;;;;29.52;17.55;;;282.10;819.20;;;;;;5096067;28;20048;-58
2022/03/21 09:03:13;;;;;;;30.13;17.50;;;282.20;819.20;;;;;;5096072;28;20111;-60
2022/03/21 09:05:39;;;;;;;27.10;15.63;;;282.30;793.60;;;;;;5095915;28;20043;-60
2022/03/21 09:08:05;;;;;;;25.42;15.30;;;282.40;768.00;;;;;;5095775;28;20039;-60
2022/03/21 09:10:30;;;;;;;28.10;14.90;;;282.50;768.00;;;;;;5095817;28;20051;-58
2022/03/21 09:12:56;;;;;;;24.25;14.50;;;307.20;793.60;;;;;;5094847;28;20058;-58
2022/03/21 09:15:22;;;;;;;25.73;15.73;;;307.30;793.60;;;;;;5095831;28;20024;-58
2022/03/21 09:17:48;;;;;;;25.30;16.05;;;307.40;768.00;;;;;;5095974;28;20031;-60
2022/03/21 09:20:14;;;;;;;24.83;14.98;;;307.50;793.60;;;;;;5096200;28;20131;-59
2022/03/21 09:22:40;;;;;;;24.75;14.32;;;307.60;768.00;;;;;;5095650;28;20028;-58
2022/03/21 09:25:07;;;;;;;36.22;18.88;;;307.70;768.00;;;;;;5095670;28;20035;-58
2022/03/21 09:27:33;;;;;;;26.77;16.20;;;307.70;768.00;;;;;;5095699;28;20027;-58
2022/03/21 09:29:59;;;;;;;26.95;17.35;;;307.80;768.00;;;;;;5095590;28;20424;-59
2022/03/21 09:32:25;;;;;;;24.30;16.13;;;307.90;768.00;;;;;;5095543;28;20123;-59
2022/03/21 09:34:51;;;;;;;29.65;16.48;;;307.90;768.00;;;;;;5095511;28;20030;-60
2022/03/21 09:37:17;;;;;;;27.02;15.63;;;308.00;768.00;;;;;;5095312;28;20409;-59
2022/03/21 09:39:43;;;;;;;29.75;16.42;;;308.10;742.40;;;;;;5095448;28;20020;-59
2022/03/21 09:42:09;;;;;;;29.73;14.43;;;332.80;768.00;;;;;;5095394;28;20028;-59
2022/03/21 09:44:35;;;;;;;23.30;13.80;;;332.80;768.00;;;;;;5095276;28;20020;-59
2022/03/21 09:48:08;;;;;;;21.50;13.10;;;332.80;742.40;;;;;;5095095;28;20028;-60
2022/03/21 09:49:51;;;;;;;23.70;14.65;;;332.90;742.40;;;;;;5094904;28;20028;-60
2022/03/21 09:52:19;;;;;;;21.60;14.43;;;333.00;742.40;;;;;;5095074;28;20082;-59
2022/03/21 09:54:45;;;;;;;22.70;14.68;;;333.10;742.40;;;;;;5095231;28;20062;-58
2022/03/21 09:57:10;;;;;;;21.98;13.80;;;333.20;716.80;;;;;;5095091;28;20020;-58
2022/03/21 09:59:36;;;;;;;23.15;15.00;;;333.20;742.40;;;;;;5094871;28;20024;-60
2022/03/21 10:02:03;;;;;;;20.60;14.60;;;333.30;742.40;;;;;;5095001;28;20032;-59
2022/03/21 10:04:30;;;;;;;20.27;13.75;;;333.30;742.40;;;;;;5094954;28;20039;-59
2022/03/21 10:07:00;;;;;;;22.90;14.88;;;333.40;742.40;;;;;;5094887;28;20020;-58
2022/03/21 10:09:25;;;;;;;26.63;14.30;;;333.40;742.40;;;;;;5094747;28;20023;-58
2022/03/21 10:11:57;;;;;;;26.38;14.98;;;333.50;716.80;;;;;;5094888;28;20056;-59
2022/03/21 10:14:43;;;;;;;28.35;17.08;;;333.50;716.80;;;;;;5094851;28;20028;-58
2022/03/21 10:17:12;;;;;;;22.98;15.55;;;333.60;716.80;;;;;;5094323;28;20032;-60
2022/03/21 10:19:45;;;;;;;25.60;15.27;;;333.60;716.80;;;;;;5094793;28;20032;-59
2022/03/21 10:22:17;;;;;;;23.73;13.85;;;333.70;691.20;;;;;;5094679;28;20012;-58
2022/03/21 10:24:45;;;;;;;22.10;13.90;;;358.40;691.20;;;;;;5094695;28;20035;-58
2022/03/21 10:27:36;;;;;;;22.35;13.45;;;358.40;691.20;;;;;;5094667;28;20024;-59
2022/03/21 10:30:07;;;;;;;18.42;12.55;;;358.40;691.20;;;;;;5012479;28;20041;-58
2022/03/21 10:32:44;;;;;;;19.55;12.68;;;358.50;691.20;;;;;;5012437;28;20125;-59
2022/03/21 10:35:21;;;;;;;20.25;12.45;;;358.60;665.60;;;;;;5012562;28;20034;-60
2022/03/21 10:37:47;;;;;;;23.33;11.40;;;358.50;665.60;;;;;;4995845;28;20075;-59
2022/03/21 10:40:16;;;;;;;19.33;11.88;;;358.60;665.60;;;;;;5012315;28;20097;-60
2022/03/21 10:42:59;;;;;;;20.80;11.75;;;358.60;665.60;;;;;;5012277;28;20113;-59
2022/03/21 10:45:51;;;;;;;17.65;11.65;;;358.80;665.60;;;;;;5012264;28;20036;-59
2022/03/21 10:48:19;;;;;;;26.27;12.52;;;358.70;665.60;;;;;;5012256;28;20061;-58
2022/03/21 10:50:46;;;;;;;20.98;12.35;;;358.80;665.60;;;;;;5012066;28;20034;-58
2022/03/21 10:53:21;;;;;;;22.52;12.10;;;358.80;665.60;;;;;;5011606;28;20030;-58
2022/03/21 10:56:00;;;;;;;21.50;11.73;;;358.90;640.00;;;;;;5012094;28;20021;-58
2022/03/21 10:58:40;;;;;;;22.02;12.07;;;358.90;640.00;;;;;;5011969;28;20034;-59
2022/03/21 11:01:15;;;;;;;21.50;11.80;;;358.90;640.00;;;;;;5012092;28;20045;-59
2022/03/21 11:03:42;;;;;;;19.92;12.07;;;359.10;640.00;;;;;;5012086;28;20072;-59
2022/03/21 11:06:13;;;;;;;23.40;13.63;;;359.10;640.00;;;;;;5023116;28;20134;-60
2022/03/21 11:08:39;;;;;;;22.88;14.07;;;359.10;640.00;;;;;;5093953;28;20386;-58
2022/03/21 11:11:07;;;;;;;19.42;12.10;;;359.10;640.00;;;;;;5093444;28;20028;-60
2022/03/21 11:13:33;;;;;;;19.80;12.13;;;359.20;640.00;;;;;;5093666;28;20031;-59
2022/03/21 11:15:59;;;;;;;17.95;10.63;;;359.30;614.40;;;;;;5093782;28;20428;-58
2022/03/21 11:18:46;;;;;;;14.40;10.02;;;359.30;614.40;;;;;;5093929;28;20028;-58
2022/03/21 11:21:13;;;;;;;12.77;8.90;;;359.30;614.40;;;;;;5093889;28;20115;-58
2022/03/21 11:23:40;;;;;;;14.68;9.40;;;359.30;614.40;;;;;;5093815;28;20036;-58
2022/03/21 11:26:24;;;;;;;16.55;10.80;;;359.30;614.40;;;;;;5093888;28;20055;-58
2022/03/21 11:29:09;;;;;;;14.55;10.18;;;359.30;588.80;;;;;;5093751;28;20377;-58
2022/03/21 11:31:58;;;;;;;15.07;9.40;;;359.30;614.40;;;;;;5093753;28;20035;-58
2022/03/21 11:34:42;;;;;;;18.20;10.35;;;359.30;614.40;;;;;;5093789;28;20058;-58
2022/03/21 11:37:32;;;;;;;15.02;9.95;;;359.30;588.80;;;;;;5095956;28;20034;-58
2022/03/21 11:40:28;;;;;;;16.55;10.70;;;384.00;588.80;;;;;;5097526;28;20524;-58
2022/03/21 11:43:21;;;;;;;22.05;12.32;;;359.30;588.80;;;;;;5097475;28;20024;-61
2022/03/21 11:45:54;;;;;;;18.58;11.18;;;384.00;588.80;;;;;;5097495;28;20099;-61
2022/03/21 11:48:23;;;;;;;22.35;11.70;;;384.00;588.80;;;;;;5098095;28;20099;-60
2022/03/21 11:50:55;;;;;;;23.15;12.10;;;384.10;588.80;;;;;;5097045;28;20359;-59
2022/03/21 11:53:28;;;;;;;27.63;12.55;;;384.20;563.20;;;;;;5086719;28;20032;-59
2022/03/21 11:55:54;;;;;;;17.15;11.43;;;384.20;537.60;;;;;;5096715;28;20081;-59
2022/03/21 11:58:23;;;;;;;18.80;11.10;;;384.40;563.20;;;;;;5096654;28;20525;-60
2022/03/21 12:01:14;;;;;;;15.65;10.13;;;384.40;563.20;;;;;;5096444;28;20037;-59
2022/03/21 12:03:44;;;;;;;19.55;10.95;;;384.40;563.20;;;;;;5096439;28;20027;-60
2022/03/21 12:06:36;;;;;;;22.33;10.60;;;384.50;563.20;;;;;;5096532;28;20028;-59
2022/03/21 12:09:13;;;;;;;25.50;12.50;;;384.50;563.20;;;;;;5090707;28;20028;-61
2022/03/21 12:11:39;;;;;;;18.90;10.48;;;384.50;563.20;;;;;;5077758;28;20024;-59
2022/03/21 12:14:28;;;;;;;13.27;9.60;;;384.50;563.20;;;;;;5096278;28;20036;-59
2022/03/21 12:17:00;;;;;;;17.63;10.65;;;384.50;588.80;;;;;;5094174;28;20012;-60
2022/03/21 12:19:47;;;;;;;18.92;10.60;;;384.50;563.20;;;;;;5095262;28;20038;-59
2022/03/21 12:22:28;;;;;;;15.82;10.60;;;384.50;563.20;;;;;;5092655;28;20059;-59
2022/03/21 12:24:55;;;;;;;17.52;10.30;;;384.60;563.20;;;;;;5093097;28;20070;-60
2022/03/21 12:27:51;;;;;;;17.55;11.23;;;384.70;588.80;;;;;;5095249;28;20351;-60
2022/03/21 12:30:20;;;;;;;19.63;11.60;;;384.50;563.20;;;;;;5093281;28;20027;-59
2022/03/21 12:32:58;;;;;;;16.17;10.80;;;384.50;563.20;;;;;;5094868;28;20031;-60
2022/03/21 12:35:32;;;;;;;19.50;11.23;;;384.50;588.80;;;;;;5095252;28;20579;-60
2022/03/21 12:38:05;;;;;;;17.40;11.30;;;384.50;563.20;;;;;;5092877;28;20020;-59
2022/03/21 12:40:37;;;;;;;19.60;11.93;;;384.60;588.80;;;;;;5092203;28;20096;-59